createdAt,value
2017-09-06T00:01:01.853Z,76.20
2017-09-06T00:03:28.159Z,76.60
2017-09-06T00:05:54.354Z,76.40
2017-09-06T00:18:07.145Z,77.10
2017-09-06T00:20:34.351Z,76.90
2017-09-06T00:23:01.270Z,76.10
2017-09-06T00:25:28.401Z,76.60
2017-09-06T00:27:54.622Z,76.60
2017-09-06T00:30:20.842Z,78.70
2017-09-06T00:32:47.034Z,78.80
2017-09-06T00:35:14.169Z,76.50
2017-09-06T00:37:41.251Z,79.00
2017-09-06T00:40:08.802Z,76.50
2017-09-06T00:42:35.751Z,77.00
2017-09-06T00:45:02.103Z,79.50
2017-09-06T00:47:29.063Z,76.80
2017-09-06T00:49:55.365Z,81.20
2017-09-06T00:52:21.577Z,80.90
2017-09-06T00:54:47.989Z,77.00
2017-09-06T00:57:14.201Z,78.80
2017-09-06T00:59:41.522Z,77.10
2017-09-06T01:02:07.701Z,78.80
2017-09-06T01:04:34.619Z,77.40
2017-09-06T01:07:03.346Z,78.40
2017-09-06T01:09:29.860Z,79.00
2017-09-06T01:11:56.062Z,78.60
2017-09-06T01:14:22.614Z,78.90
2017-09-06T01:16:49.601Z,77.30
2017-09-06T01:19:16.522Z,77.60
2017-09-06T01:21:44.832Z,77.10
2017-09-06T01:24:12.778Z,78.40
2017-09-06T01:26:39.912Z,78.40
2017-09-06T01:29:06.084Z,82.40
2017-09-06T01:31:32.255Z,77.50
2017-09-06T01:33:59.533Z,77.30
2017-09-06T01:36:26.881Z,77.60
2017-09-06T01:38:53.045Z,94.00
2017-09-06T01:41:19.510Z,99.90
2017-09-06T01:43:46.567Z,97.90
2017-09-06T01:46:13.206Z,77.80
2017-09-06T01:48:40.172Z,77.80
2017-09-06T01:51:06.383Z,97.80
2017-09-06T01:53:32.555Z,92.70
2017-09-06T01:55:58.751Z,96.20
2017-09-06T01:58:25.766Z,94.10
2017-09-06T02:00:53.049Z,78.30
2017-09-06T02:03:19.264Z,97.40
2017-09-06T02:05:45.407Z,93.70
2017-09-06T02:08:12.006Z,91.20
2017-09-06T02:10:38.591Z,78.20
2017-09-06T02:13:05.614Z,94.70
2017-09-06T02:18:04.044Z,78.20
2017-09-06T02:20:30.903Z,87.80
2017-09-06T02:22:57.088Z,88.70
2017-09-06T02:25:25.586Z,78.10
2017-09-06T02:30:20.589Z,97.70
2017-09-06T02:32:47.838Z,97.20
2017-09-06T02:35:15.466Z,78.30
2017-09-06T02:37:43.200Z,78.20
2017-09-06T02:40:10.084Z,78.20
2017-09-06T02:42:39.840Z,77.80
2017-09-06T02:45:06.467Z,78.30
2017-09-06T02:47:33.434Z,78.20
2017-09-06T02:50:00.369Z,78.20
2017-09-06T02:52:26.556Z,81.40
2017-09-06T02:54:53.380Z,92.20
2017-09-06T02:57:20.916Z,90.60
2017-09-06T02:59:48.500Z,91.90
2017-09-06T03:02:16.148Z,87.70
2017-09-06T03:04:44.443Z,78.80
2017-09-06T03:07:12.542Z,79.00
2017-09-06T03:12:07.588Z,77.90
2017-09-06T03:14:34.555Z,87.00
2017-09-06T03:17:02.339Z,78.30
2017-09-06T03:19:29.251Z,78.10
2017-09-06T03:21:56.785Z,97.70
2017-09-06T03:24:23.026Z,93.50
2017-09-06T03:26:49.211Z,99.90
2017-09-06T03:29:17.288Z,86.40
2017-09-06T03:31:44.176Z,77.60
2017-09-06T03:34:10.374Z,86.40
2017-09-06T03:36:36.553Z,93.00
2017-09-06T03:39:02.783Z,91.10
2017-09-06T03:41:28.955Z,82.20
2017-09-06T03:43:55.862Z,78.00
2017-09-06T03:46:22.935Z,84.90
2017-09-06T03:48:49.109Z,78.00
2017-09-06T03:51:16.915Z,78.00
2017-09-06T03:53:43.066Z,78.00
2017-09-06T03:56:09.246Z,78.50
2017-09-06T03:58:36.241Z,81.60
2017-09-06T04:01:02.792Z,77.90
2017-09-06T04:03:28.973Z,78.30
2017-09-06T04:05:55.458Z,77.90
2017-09-06T04:08:21.641Z,78.00
2017-09-06T04:10:47.811Z,78.10
2017-09-06T04:13:15.169Z,77.80
2017-09-06T04:15:41.814Z,78.50
2017-09-06T04:18:09.265Z,79.00
2017-09-06T04:20:35.893Z,78.50
2017-09-06T04:23:02.088Z,78.40
2017-09-06T04:25:29.433Z,78.90
2017-09-06T04:27:55.633Z,79.40
2017-09-06T04:30:21.870Z,79.00
2017-09-06T04:32:48.031Z,78.10
2017-09-06T04:35:14.215Z,77.90
2017-09-06T04:37:40.411Z,78.50
2017-09-06T04:40:06.573Z,78.30
2017-09-06T04:42:32.765Z,79.30
2017-09-06T04:44:59.681Z,78.80
2017-09-06T04:47:25.875Z,78.70
2017-09-06T04:49:52.032Z,78.30
2017-09-06T04:52:18.219Z,78.00
2017-09-06T04:54:44.423Z,78.60
2017-09-06T04:57:10.614Z,77.70
2017-09-06T04:59:36.808Z,77.90
2017-09-06T05:02:02.990Z,77.80
2017-09-06T05:04:29.202Z,78.00
2017-09-06T05:06:56.237Z,78.00
2017-09-06T05:09:22.418Z,78.10
2017-09-06T05:11:48.577Z,78.90
2017-09-06T05:14:15.727Z,78.10
2017-09-06T05:16:41.878Z,78.50
2017-09-06T05:19:09.014Z,79.00
2017-09-06T05:21:36.132Z,77.90
2017-09-06T05:24:02.906Z,77.70
2017-09-06T05:26:29.075Z,77.80
2017-09-06T05:28:55.198Z,77.80
2017-09-06T05:31:21.407Z,78.10
2017-09-06T05:33:49.280Z,77.80
2017-09-06T05:36:16.501Z,78.00
2017-09-06T05:38:42.691Z,78.90
2017-09-06T05:41:10.275Z,78.80
2017-09-06T05:43:41.070Z,78.80
2017-09-06T05:46:07.852Z,78.90
2017-09-06T05:48:34.064Z,78.90
2017-09-06T05:51:02.194Z,79.60
2017-09-06T06:03:13.424Z,78.80
2017-09-06T06:05:39.627Z,79.00
2017-09-06T06:08:05.797Z,78.80
2017-09-06T06:10:31.991Z,78.40
2017-09-06T06:12:58.800Z,77.80
2017-09-06T06:15:24.984Z,75.90
2017-09-06T06:17:51.155Z,76.10
2017-09-06T06:20:19.359Z,75.80
2017-09-06T06:22:47.422Z,75.30
2017-09-06T06:25:13.606Z,75.30
2017-09-06T06:27:39.823Z,74.90
2017-09-06T06:30:06.004Z,75.30
2017-09-06T06:32:32.160Z,74.30
2017-09-06T06:34:58.343Z,74.60
2017-09-06T06:37:24.555Z,73.70
2017-09-06T06:39:50.818Z,73.90
2017-09-06T06:42:16.998Z,74.10
2017-09-06T06:44:43.178Z,74.30
2017-09-06T06:47:09.373Z,74.50
2017-09-06T06:49:35.579Z,74.50
2017-09-06T06:52:02.707Z,74.50
2017-09-06T06:54:28.873Z,75.20
2017-09-06T06:56:55.407Z,74.00
2017-09-06T06:59:21.622Z,73.90
2017-09-06T07:01:47.830Z,73.70
2017-09-06T07:04:14.863Z,74.00
2017-09-06T07:06:41.034Z,73.30
2017-09-06T07:09:07.957Z,73.40
2017-09-06T07:11:35.019Z,73.10
2017-09-06T07:14:01.252Z,73.70
2017-09-06T07:16:28.941Z,73.50
2017-09-06T07:18:55.214Z,74.10
2017-09-06T07:21:22.398Z,74.30
2017-09-06T07:23:48.559Z,74.50
2017-09-06T07:26:14.763Z,74.90
2017-09-06T07:28:41.542Z,73.30
2017-09-06T07:31:07.763Z,73.70
2017-09-06T07:33:34.002Z,72.60
2017-09-06T07:36:01.111Z,73.10
2017-09-06T07:38:27.264Z,72.80
2017-09-06T07:40:53.441Z,72.20
2017-09-06T07:43:20.518Z,72.40
2017-09-06T07:45:47.705Z,69.80
2017-09-06T07:48:13.909Z,67.50
2017-09-06T07:50:40.110Z,67.80
2017-09-06T07:53:06.344Z,63.10
2017-09-06T07:55:36.042Z,61.20
2017-09-06T07:58:02.350Z,60.60
2017-09-06T08:00:30.288Z,61.50
2017-09-06T08:02:56.474Z,59.30
2017-09-06T08:05:22.970Z,59.20
2017-09-06T08:07:55.182Z,58.70
2017-09-06T08:10:21.403Z,58.10
2017-09-06T08:12:47.552Z,58.50
2017-09-06T08:15:13.782Z,60.00
2017-09-06T08:17:42.719Z,59.30
2017-09-06T08:20:08.896Z,58.70
2017-09-06T08:22:35.309Z,60.20
2017-09-06T08:25:05.058Z,59.90
2017-09-06T08:27:33.168Z,59.90
2017-09-06T08:29:59.472Z,61.10
2017-09-06T08:32:25.694Z,61.40
2017-09-06T08:34:51.890Z,61.60
2017-09-06T08:37:18.103Z,60.60
2017-09-06T08:49:29.356Z,61.30
2017-09-06T08:51:55.587Z,62.10
2017-09-06T08:54:21.779Z,61.40
2017-09-06T08:56:48.151Z,60.80
2017-09-06T08:59:16.082Z,60.10
2017-09-06T09:01:42.307Z,59.40
2017-09-06T09:04:09.446Z,60.60
2017-09-06T09:06:36.481Z,59.60
2017-09-06T09:09:02.688Z,58.30
2017-09-06T09:11:28.911Z,58.80
2017-09-06T09:13:55.102Z,57.30
2017-09-06T09:16:21.289Z,58.00
2017-09-06T09:18:49.732Z,57.00
2017-09-06T09:21:16.821Z,54.70
2017-09-06T09:23:43.047Z,52.30
2017-09-06T09:26:10.920Z,52.10
2017-09-06T09:28:37.058Z,52.70
2017-09-06T09:31:03.243Z,51.30
2017-09-06T09:33:29.414Z,50.00
2017-09-06T09:35:55.582Z,50.10
2017-09-06T09:38:21.738Z,51.40
2017-09-06T09:40:48.826Z,52.60
2017-09-06T09:43:15.031Z,53.40
2017-09-06T09:45:41.183Z,54.60
2017-09-06T09:48:07.373Z,54.00
2017-09-06T09:50:33.502Z,55.20
2017-09-06T09:52:59.702Z,56.00
2017-09-06T09:55:27.031Z,57.30
2017-09-06T09:57:54.874Z,58.80
2017-09-06T10:00:21.083Z,61.00
2017-09-06T10:02:47.655Z,63.60
2017-09-06T10:05:14.455Z,64.30
2017-09-06T10:07:40.663Z,65.10
2017-09-06T10:10:06.870Z,65.40
2017-09-06T10:12:33.924Z,65.30
2017-09-06T10:15:00.122Z,64.80
2017-09-06T10:27:11.484Z,63.00
2017-09-06T10:29:37.626Z,63.30
2017-09-06T10:32:03.814Z,63.30
2017-09-06T10:34:30.948Z,62.40
2017-09-06T10:36:57.135Z,62.90
2017-09-06T10:39:23.299Z,61.80
2017-09-06T10:41:53.684Z,61.90
2017-09-06T10:44:22.472Z,59.00
2017-09-06T10:46:48.615Z,53.20
2017-09-06T10:49:14.794Z,53.50
2017-09-06T10:51:42.366Z,51.10
2017-09-06T11:03:53.972Z,46.40
2017-09-06T11:06:20.110Z,47.10
2017-09-06T11:08:48.113Z,43.20
2017-09-06T11:11:14.329Z,43.20
2017-09-06T11:13:40.552Z,41.60
2017-09-06T11:16:08.203Z,37.20
2017-09-06T11:18:34.367Z,41.90
2017-09-06T11:21:00.514Z,49.40
2017-09-06T11:23:28.134Z,39.70
2017-09-06T11:25:55.086Z,36.00
2017-09-06T11:28:23.213Z,62.80
2017-09-06T11:30:51.827Z,35.60
2017-09-06T11:33:18.043Z,53.00
2017-09-06T11:38:12.210Z,50.70
2017-09-06T11:40:40.166Z,47.50
2017-09-06T11:43:06.388Z,45.30
2017-09-06T11:45:33.470Z,42.40
2017-09-06T11:47:59.964Z,41.40
2017-09-06T11:50:26.955Z,41.60
2017-09-06T11:52:53.497Z,40.10
2017-09-06T11:55:19.692Z,38.80
2017-09-06T11:57:46.226Z,43.10
2017-09-06T12:00:12.388Z,37.70
2017-09-06T12:02:38.855Z,36.80
2017-09-06T12:05:05.754Z,38.00
2017-09-06T12:07:32.054Z,36.60
2017-09-06T12:09:59.229Z,34.50
2017-09-06T12:12:25.834Z,35.80
2017-09-06T12:14:52.017Z,32.80
2017-09-06T12:17:18.212Z,46.40
2017-09-06T12:19:45.442Z,35.70
2017-09-06T12:22:12.614Z,37.20
2017-09-06T12:24:41.650Z,45.60
2017-09-06T12:27:07.858Z,41.50
2017-09-06T12:29:34.025Z,42.50
2017-09-06T12:32:00.203Z,41.30
2017-09-06T12:34:27.359Z,41.20
2017-09-06T12:36:54.927Z,36.80
2017-09-06T12:39:21.126Z,37.00
2017-09-06T12:41:48.398Z,47.10
2017-09-06T12:44:14.589Z,57.60
2017-09-06T12:46:42.401Z,41.30
2017-09-06T12:49:08.618Z,41.10
2017-09-06T12:51:35.648Z,57.70
2017-09-06T12:54:02.253Z,42.10
2017-09-06T12:56:28.547Z,44.30
2017-09-06T12:58:54.719Z,42.90
2017-09-06T13:01:22.649Z,42.30
2017-09-06T13:03:48.858Z,40.40
2017-09-06T13:06:15.037Z,42.20
2017-09-06T13:08:41.324Z,42.00
2017-09-06T13:11:08.222Z,42.70
2017-09-06T13:13:34.426Z,43.50
2017-09-06T13:16:01.221Z,44.60
2017-09-06T13:18:27.426Z,43.50
2017-09-06T13:20:53.611Z,48.30
2017-09-06T13:23:19.818Z,45.60
2017-09-06T13:25:47.327Z,44.80
2017-09-06T13:28:13.494Z,50.30
2017-09-06T13:30:40.510Z,53.70
2017-09-06T13:33:06.675Z,47.60
2017-09-06T13:35:33.859Z,44.60
2017-09-06T13:38:00.023Z,46.80
2017-09-06T13:40:26.974Z,45.20
2017-09-06T13:42:53.134Z,44.40
2017-09-06T13:45:19.302Z,40.40
2017-09-06T13:47:45.498Z,41.00
2017-09-06T13:50:14.474Z,41.60
2017-09-06T13:52:40.690Z,42.60
2017-09-06T13:55:06.926Z,45.40
2017-09-06T13:57:33.116Z,43.50
2017-09-06T13:59:59.275Z,42.70
2017-09-06T14:02:25.475Z,43.40
2017-09-06T14:04:51.657Z,44.10
2017-09-06T14:07:18.599Z,43.50
2017-09-06T14:09:46.882Z,43.50
2017-09-06T14:12:13.159Z,43.40
2017-09-06T14:14:39.408Z,43.50
2017-09-06T14:17:05.642Z,43.30
2017-09-06T14:19:33.803Z,42.70
2017-09-06T14:22:00.017Z,42.80
2017-09-06T14:24:26.984Z,43.40
2017-09-06T14:26:53.187Z,45.40
2017-09-06T14:29:19.402Z,43.50
2017-09-06T14:31:48.325Z,43.50
2017-09-06T14:34:15.201Z,42.70
2017-09-06T14:36:41.426Z,43.50
2017-09-06T14:39:07.595Z,43.50
2017-09-06T14:41:35.819Z,44.60
2017-09-06T14:44:02.074Z,45.30
2017-09-06T14:46:28.305Z,43.90
2017-09-06T14:48:55.491Z,44.40
2017-09-06T14:51:21.711Z,42.60
2017-09-06T14:53:47.922Z,44.80
2017-09-06T14:56:14.111Z,46.80
2017-09-06T14:58:40.532Z,42.90
2017-09-06T15:01:06.727Z,43.80
2017-09-06T15:06:11.434Z,47.00
2017-09-06T15:08:38.432Z,45.30
2017-09-06T15:11:04.607Z,46.60
2017-09-06T15:13:31.603Z,46.40
2017-09-06T15:15:59.716Z,42.60
2017-09-06T15:18:25.908Z,43.20
2017-09-06T15:20:52.940Z,43.60
2017-09-06T15:23:19.485Z,47.00
2017-09-06T15:25:46.281Z,46.60
2017-09-06T15:28:13.408Z,44.30
2017-09-06T15:30:40.027Z,46.20
2017-09-06T15:33:06.918Z,43.40
2017-09-06T15:45:18.129Z,44.80
2017-09-06T15:47:44.682Z,43.50
2017-09-06T15:50:10.902Z,43.00
2017-09-06T15:52:38.015Z,44.80
2017-09-06T15:55:04.979Z,42.90
2017-09-06T15:57:31.174Z,42.80
2017-09-06T15:59:58.295Z,44.30
2017-09-06T16:12:09.538Z,45.10
2017-09-06T16:14:35.837Z,46.00
2017-09-06T16:17:02.080Z,45.10
2017-09-06T16:19:28.740Z,44.70
2017-09-06T16:21:55.719Z,45.30
2017-09-06T16:24:23.882Z,44.30
2017-09-06T16:26:54.929Z,49.20
2017-09-06T16:29:21.114Z,47.10
2017-09-06T16:31:47.831Z,45.70
2017-09-06T16:34:14.347Z,45.20
2017-09-06T16:36:41.370Z,46.00
2017-09-06T16:39:09.143Z,47.00
2017-09-06T16:41:35.359Z,45.50
2017-09-06T16:44:02.742Z,45.40
2017-09-06T16:46:29.172Z,47.10
2017-09-06T16:48:55.495Z,46.90
2017-09-06T16:51:23.227Z,45.60
2017-09-06T16:53:51.079Z,47.00
2017-09-06T16:56:17.349Z,46.40
2017-09-06T16:58:44.822Z,47.40
2017-09-06T17:01:12.116Z,46.80
2017-09-06T17:03:38.318Z,47.90
2017-09-06T17:06:04.490Z,48.30
2017-09-06T17:08:30.702Z,48.10
2017-09-06T17:10:56.911Z,49.00
2017-09-06T17:13:23.126Z,49.30
2017-09-06T17:15:49.516Z,49.10
2017-09-06T17:18:17.693Z,49.10
2017-09-06T17:20:43.855Z,48.90
2017-09-06T17:23:12.037Z,49.00
2017-09-06T17:35:23.234Z,50.30
2017-09-06T17:37:49.487Z,50.70
2017-09-06T17:40:16.863Z,49.00
2017-09-06T17:42:46.054Z,50.50
2017-09-06T17:45:13.426Z,49.20
2017-09-06T17:47:42.103Z,50.60
2017-09-06T17:50:09.010Z,50.00
2017-09-06T17:52:35.217Z,51.30
2017-09-06T17:55:04.803Z,50.20
2017-09-06T17:57:31.891Z,51.30
2017-09-06T17:59:58.102Z,49.90
2017-09-06T18:02:24.619Z,50.00
2017-09-06T18:04:52.070Z,51.20
2017-09-06T18:07:18.636Z,49.80
2017-09-06T18:09:44.979Z,51.10
2017-09-06T18:12:11.175Z,50.80
2017-09-06T18:14:38.217Z,50.10
2017-09-06T18:17:04.623Z,50.90
2017-09-06T18:19:31.879Z,50.90
2017-09-06T18:21:58.801Z,51.30
2017-09-06T18:24:25.934Z,51.20
2017-09-06T18:26:52.249Z,49.90
2017-09-06T18:29:18.441Z,51.90
2017-09-06T18:31:46.639Z,50.80
2017-09-06T18:34:13.196Z,51.10
2017-09-06T18:36:39.471Z,50.80
2017-09-06T18:39:05.685Z,50.10
2017-09-06T18:41:31.867Z,50.80
2017-09-06T18:44:06.064Z,51.90
2017-09-06T18:46:32.395Z,52.30
2017-09-06T18:48:59.428Z,52.50
2017-09-06T18:51:26.050Z,51.90
2017-09-06T18:53:56.524Z,51.50
2017-09-06T18:56:22.780Z,52.60
2017-09-06T18:58:48.975Z,51.20
2017-09-06T19:01:15.444Z,51.50
2017-09-06T19:03:41.685Z,51.80
2017-09-06T19:06:09.633Z,53.20
2017-09-06T19:08:37.968Z,52.40
2017-09-06T19:11:04.736Z,52.50
2017-09-06T19:13:30.954Z,52.40
2017-09-06T19:15:57.534Z,52.20
2017-09-06T19:18:23.751Z,52.20
2017-09-06T19:20:50.010Z,52.70
2017-09-06T19:23:16.217Z,53.20
2017-09-06T19:25:42.886Z,53.40
2017-09-06T19:28:10.912Z,53.60
2017-09-06T19:30:37.193Z,53.50
2017-09-06T19:33:03.659Z,56.40
2017-09-06T19:35:31.240Z,55.00
2017-09-06T19:37:57.577Z,54.80
2017-09-06T19:40:24.641Z,55.70
2017-09-06T19:42:51.088Z,55.70
2017-09-06T19:45:17.374Z,55.80
2017-09-06T19:47:43.575Z,56.30
2017-09-06T19:50:09.784Z,56.60
2017-09-06T19:52:35.976Z,57.20
2017-09-06T19:55:02.213Z,57.00
2017-09-06T19:57:30.853Z,57.20
2017-09-06T19:59:57.083Z,57.60
2017-09-06T20:02:24.221Z,57.30
2017-09-06T20:04:50.433Z,57.40
2017-09-06T20:07:16.676Z,57.20
2017-09-06T20:09:43.051Z,56.80
2017-09-06T20:12:09.252Z,56.50
2017-09-06T20:14:35.482Z,56.90
2017-09-06T20:17:03.057Z,55.80
2017-09-06T20:19:29.359Z,55.60
2017-09-06T20:21:55.539Z,55.10
2017-09-06T20:24:22.267Z,54.00
2017-09-06T20:26:50.401Z,55.30
2017-09-06T20:29:16.953Z,53.80
2017-09-06T20:31:44.279Z,52.80
2017-09-06T20:34:10.950Z,53.50
2017-09-06T20:36:37.200Z,53.50
2017-09-06T20:39:03.534Z,54.60
2017-09-06T20:41:29.722Z,54.70
2017-09-06T20:43:56.891Z,54.60
2017-09-06T20:46:24.085Z,54.60
2017-09-06T20:48:50.962Z,55.60
2017-09-06T20:51:21.305Z,55.00
2017-09-06T20:53:48.764Z,55.40
2017-09-06T20:56:17.984Z,55.40
2017-09-06T20:58:44.124Z,55.00
2017-09-06T21:01:10.710Z,55.40
2017-09-06T21:03:37.825Z,55.20
2017-09-06T21:06:04.014Z,55.60
2017-09-06T21:08:30.292Z,55.60
2017-09-06T21:20:41.490Z,55.50
2017-09-06T21:23:07.712Z,56.60
2017-09-06T21:25:33.912Z,55.50
2017-09-06T21:28:00.075Z,57.50
2017-09-06T21:30:27.226Z,56.60
2017-09-06T21:32:56.585Z,55.60
2017-09-06T21:35:22.823Z,57.10
2017-09-06T21:47:34.076Z,58.90
2017-09-06T21:50:03.171Z,59.10
2017-09-06T21:52:29.342Z,59.70
2017-09-06T21:54:57.026Z,59.30
2017-09-06T21:57:23.207Z,59.30
2017-09-06T21:59:52.488Z,59.20
2017-09-06T22:02:20.829Z,59.10
2017-09-06T22:04:47.706Z,59.10
2017-09-06T22:07:14.154Z,59.70
2017-09-06T22:09:41.733Z,59.40
2017-09-06T22:12:07.926Z,59.30
2017-09-06T22:14:34.112Z,59.20
2017-09-06T22:17:03.083Z,60.50
2017-09-06T22:19:30.881Z,60.00
2017-09-06T22:21:57.051Z,59.80
2017-09-06T22:24:23.253Z,59.00
2017-09-06T22:26:49.471Z,59.00
2017-09-06T22:29:15.646Z,59.50
2017-09-06T22:32:19.442Z,59.80
2017-09-06T22:34:46.647Z,60.00
2017-09-06T22:37:13.072Z,59.70
2017-09-06T22:39:41.578Z,60.00
2017-09-06T22:42:08.057Z,59.80
2017-09-06T22:44:35.008Z,59.90
2017-09-06T22:47:02.362Z,60.10
2017-09-06T22:49:28.832Z,60.30
2017-09-06T22:51:55.418Z,60.10
2017-09-06T22:54:21.604Z,60.30
2017-09-06T22:56:48.179Z,60.20
2017-09-06T22:59:14.374Z,60.90
2017-09-06T23:01:42.806Z,61.40
2017-09-06T23:04:08.970Z,61.90
2017-09-06T23:06:36.569Z,61.30
2017-09-06T23:09:02.763Z,62.10
2017-09-06T23:11:28.944Z,61.20
2017-09-06T23:13:55.123Z,61.40
2017-09-06T23:16:24.747Z,62.00
2017-09-06T23:18:51.274Z,61.80
2017-09-06T23:21:17.472Z,60.70
2017-09-06T23:23:44.410Z,61.70
2017-09-06T23:26:11.298Z,62.70
2017-09-06T23:28:37.523Z,62.60
2017-09-06T23:31:03.783Z,63.30
2017-09-06T23:33:30.003Z,63.00
2017-09-06T23:35:56.176Z,64.10
2017-09-06T23:38:23.102Z,63.00
2017-09-06T23:40:49.783Z,62.30
2017-09-06T23:43:15.990Z,62.30
2017-09-06T23:45:43.580Z,63.70
2017-09-06T23:48:09.775Z,63.00
2017-09-06T23:50:36.756Z,62.90
2017-09-06T23:53:02.952Z,63.10
2017-09-06T23:55:30.859Z,63.40
2017-09-06T23:57:59.728Z,62.80
